Time;durP1;ratioP1;P1;durP2;ratioP2;P2;SDS_P1;SDS_P2;PMS_P1;PMS_P2;Temp;Humidity;BMP_temperature;BMP_pressure;BME280_temperature;BME280_humidity;BME280_pressure;Samples;Min_cycle;Max_cycle;Signal;HPM_P1;HPM_P2
2023/10/02 00:00:34;;;;;;;6.70;4.47;;;19.80;75.70;;;;;;10459739;28;20020;-55
2023/10/02 00:05:41;;;;;;;5.78;4.63;;;19.80;75.60;;;;;;10453890;28;20036;-55
2023/10/02 00:10:41;;;;;;;7.53;4.18;;;19.80;75.60;;;;;;10490944;28;20032;-56
2023/10/02 00:15:42;;;;;;;6.93;4.50;;;19.90;75.60;;;;;;10488885;28;20040;-56
2023/10/02 00:20:43;;;;;;;6.35;3.88;;;19.80;75.50;;;;;;10490952;28;20430;-56
2023/10/02 00:25:52;;;;;;;5.88;4.28;;;19.80;75.50;;;;;;10488994;28;20137;-56
2023/10/02 00:30:52;;;;;;;6.70;4.50;;;19.80;75.50;;;;;;10466893;28;20632;-56
2023/10/02 00:35:56;;;;;;;8.10;5.13;;;19.80;75.50;;;;;;10449726;28;20032;-55
2023/10/02 00:40:57;;;;;;;7.10;4.72;;;19.80;75.50;;;;;;10470772;28;20025;-56
2023/10/02 00:46:01;;;;;;;7.53;5.28;;;19.80;75.50;;;;;;10457062;28;20037;-56
2023/10/02 00:51:06;;;;;;;9.15;5.13;;;19.80;75.50;;;;;;10457002;28;20031;-56
2023/10/02 00:56:28;;;;;;;7.40;4.90;;;19.90;77.90;;;;;;10471330;28;20037;-56
2023/10/02 01:01:31;;;;;;;6.53;4.50;;;19.90;79.20;;;;;;10465601;28;20056;-56
2023/10/02 01:06:35;;;;;;;8.10;5.55;;;20.00;78.70;;;;;;10455897;28;20154;-55
2023/10/02 01:11:36;;;;;;;7.00;4.60;;;20.00;78.40;;;;;;10471185;28;20101;-56
2023/10/02 01:16:36;;;;;;;8.95;5.28;;;20.00;78.10;;;;;;10455924;28;20037;-56
2023/10/02 01:21:40;;;;;;;7.45;4.78;;;20.00;77.90;;;;;;10454562;28;20029;-56
2023/10/02 01:26:43;;;;;;;9.23;5.18;;;20.00;77.90;;;;;;10489177;28;20043;-56
2023/10/02 01:31:51;;;;;;;8.70;4.80;;;19.90;77.70;;;;;;10466069;28;20108;-55
2023/10/02 01:36:52;;;;;;;6.77;5.23;;;19.90;77.70;;;;;;10455050;28;20033;-55
2023/10/02 01:41:53;;;;;;;7.40;4.47;;;20.00;77.70;;;;;;10454965;28;20032;-56
2023/10/02 01:46:54;;;;;;;5.80;4.78;;;19.90;77.60;;;;;;10454104;28;20029;-56
2023/10/02 01:52:02;;;;;;;6.95;4.72;;;19.90;77.50;;;;;;10454491;28;20025;-55
2023/10/02 01:57:04;;;;;;;9.63;5.55;;;19.90;77.30;;;;;;10453947;28;20037;-55
2023/10/02 02:02:12;;;;;;;7.75;4.40;;;19.90;77.90;;;;;;10463591;28;20028;-55
2023/10/02 02:07:15;;;;;;;7.63;5.20;;;19.90;77.20;;;;;;10453811;28;20079;-55
2023/10/02 02:12:18;;;;;;;7.80;4.20;;;19.90;77.20;;;;;;10453765;28;20364;-55
2023/10/02 02:17:27;;;;;;;7.75;4.82;;;19.90;77.10;;;;;;10489799;28;20080;-56
2023/10/02 02:22:32;;;;;;;7.10;4.93;;;19.90;77.20;;;;;;10451807;28;20027;-56
2023/10/02 02:27:33;;;;;;;7.60;4.50;;;19.90;77.10;;;;;;10480736;28;20498;-55
2023/10/02 02:32:36;;;;;;;6.72;4.80;;;19.90;77.10;;;;;;10456951;28;20036;-56
2023/10/02 02:37:41;;;;;;;7.13;4.75;;;19.90;77.00;;;;;;10452689;28;20068;-54
2023/10/02 02:42:42;;;;;;;5.57;4.25;;;19.90;76.90;;;;;;10452653;28;20025;-54
2023/10/02 02:47:51;;;;;;;7.38;4.90;;;19.90;76.80;;;;;;10450687;28;20158;-56
2023/10/02 02:53:16;;;;;;;7.35;4.82;;;19.90;76.80;;;;;;10466671;28;20052;-55
2023/10/02 02:58:12;;;;;;;8.00;4.95;;;19.80;76.70;;;;;;10457897;28;20041;-56
2023/10/02 03:08:38;;;;;;;8.25;4.75;;;19.80;76.70;;;;;;10451082;28;20400;-56
2023/10/02 03:13:41;;;;;;;6.40;4.28;;;19.80;76.60;;;;;;10451305;28;20060;-55
2023/10/02 03:18:48;;;;;;;6.82;4.20;;;19.80;76.50;;;;;;10451056;28;20040;-56
2023/10/02 03:23:54;;;;;;;7.25;4.57;;;19.80;76.60;;;;;;10451302;28;20025;-55
2023/10/02 03:29:02;;;;;;;6.57;5.00;;;19.80;76.50;;;;;;10480952;28;20108;-55
2023/10/02 03:34:27;;;;;;;6.90;4.55;;;19.80;76.50;;;;;;10449476;28;20036;-56
2023/10/02 03:44:50;;;;;;;8.25;4.60;;;19.80;76.60;;;;;;10480634;28;20052;-55
2023/10/02 03:49:51;;;;;;;8.88;4.35;;;19.90;76.90;;;;;;10484543;28;20044;-56
2023/10/02 03:54:54;;;;;;;6.65;4.80;;;19.90;76.90;;;;;;10482895;28;20108;-56
2023/10/02 03:59:56;;;;;;;9.25;5.22;;;19.90;76.80;;;;;;10482242;28;20021;-56
2023/10/02 04:04:57;;;;;;;6.78;4.78;;;20.00;76.90;;;;;;10484182;28;20446;-55
2023/10/02 04:09:59;;;;;;;6.88;4.40;;;19.90;76.70;;;;;;10453506;28;20067;-56
2023/10/02 04:15:04;;;;;;;7.63;4.07;;;20.00;77.10;;;;;;10487549;28;20052;-56
2023/10/02 04:20:05;;;;;;;8.80;4.47;;;20.00;77.10;;;;;;10488132;28;20079;-56
2023/10/02 04:25:07;;;;;;;7.75;4.57;;;19.90;76.70;;;;;;10470175;28;20037;-56
2023/10/02 04:30:22;;;;;;;8.32;4.53;;;19.90;76.90;;;;;;10469507;28;20376;-56
2023/10/02 04:40:52;;;;;;;6.72;5.03;;;19.80;76.80;;;;;;10488063;28;20032;-55
2023/10/02 04:46:01;;;;;;;8.40;4.97;;;19.80;76.80;;;;;;10488094;28;20121;-56
2023/10/02 04:51:07;;;;;;;7.50;5.28;;;19.80;76.80;;;;;;10487507;28;20103;-55
2023/10/02 05:01:41;;;;;;;7.03;4.65;;;19.80;76.80;;;;;;10487027;28;20445;-55
2023/10/02 05:06:52;;;;;;;8.95;4.88;;;19.80;76.80;;;;;;10449426;28;20415;-55
2023/10/02 05:11:57;;;;;;;9.30;5.13;;;19.90;76.90;;;;;;10487164;28;20035;-55
2023/10/02 05:17:17;;;;;;;8.13;4.60;;;20.00;76.80;;;;;;10487769;28;20430;-56
2023/10/02 05:22:18;;;;;;;9.55;4.85;;;20.00;76.90;;;;;;10487847;28;20062;-56
2023/10/02 05:27:30;;;;;;;9.73;4.20;;;20.00;77.50;;;;;;10493247;28;20102;-56
2023/10/02 05:32:35;;;;;;;9.45;4.90;;;20.00;76.90;;;;;;10495287;28;20047;-56
2023/10/02 05:37:42;;;;;;;19.23;5.22;;;20.10;77.00;;;;;;10495624;28;20063;-55
2023/10/02 05:42:53;;;;;;;15.23;4.97;;;20.10;76.80;;;;;;10494946;28;20040;-55
2023/10/02 05:47:55;;;;;;;9.50;4.82;;;20.10;76.90;;;;;;10477378;28;20519;-56
2023/10/02 05:52:56;;;;;;;13.50;5.68;;;20.10;77.00;;;;;;10494051;28;20036;-56
2023/10/02 05:57:58;;;;;;;11.32;5.80;;;20.10;77.00;;;;;;10495197;28;20040;-56
2023/10/02 06:03:00;;;;;;;14.63;5.63;;;20.20;77.00;;;;;;10490908;28;20071;-55
2023/10/02 06:08:05;;;;;;;14.68;6.18;;;20.10;76.80;;;;;;10489959;28;20028;-57
2023/10/02 06:13:08;;;;;;;17.35;6.15;;;20.20;76.40;;;;;;10493113;28;20060;-56
2023/10/02 06:18:09;;;;;;;13.23;6.28;;;20.20;76.80;;;;;;10477074;28;20040;-56
2023/10/02 06:23:22;;;;;;;12.32;5.55;;;20.00;76.90;;;;;;10492156;28;20042;-56
2023/10/02 06:28:25;;;;;;;13.10;5.65;;;20.00;77.20;;;;;;10478207;28;20083;-55
2023/10/02 06:33:27;;;;;;;14.50;6.05;;;19.90;77.30;;;;;;10492261;28;20107;-55
2023/10/02 06:38:29;;;;;;;14.65;5.43;;;19.90;77.30;;;;;;10475569;28;20055;-55
2023/10/02 06:43:31;;;;;;;11.43;5.75;;;19.90;78.00;;;;;;10493091;28;20637;-55
2023/10/02 06:48:37;;;;;;;13.80;6.20;;;19.90;77.10;;;;;;10492427;28;20029;-56
2023/10/02 06:53:40;;;;;;;16.40;6.63;;;19.90;77.10;;;;;;10492518;28;20033;-55
2023/10/02 06:58:56;;;;;;;11.95;6.80;;;19.90;77.10;;;;;;10482457;28;20025;-56
2023/10/02 07:04:08;;;;;;;13.15;5.90;;;20.00;77.10;;;;;;10475415;28;20076;-56
2023/10/02 07:09:12;;;;;;;10.95;6.43;;;19.90;77.10;;;;;;10492056;28;20025;-56
2023/10/02 07:14:14;;;;;;;12.98;5.90;;;19.90;77.10;;;;;;10491224;28;20049;-56
2023/10/02 07:19:27;;;;;;;16.23;6.72;;;20.00;77.20;;;;;;10490815;28;20036;-58
2023/10/02 07:24:28;;;;;;;11.80;6.68;;;20.00;77.10;;;;;;10490981;28;20029;-59
2023/10/02 07:29:38;;;;;;;11.55;5.60;;;20.00;77.50;;;;;;10490662;28;20069;-56
2023/10/02 07:34:38;;;;;;;10.73;6.53;;;20.00;77.50;;;;;;10481538;28;20028;-56
2023/10/02 07:39:40;;;;;;;12.07;5.43;;;20.00;77.50;;;;;;10490857;28;20029;-56
2023/10/02 07:44:41;;;;;;;9.35;5.50;;;20.00;77.40;;;;;;10488950;28;20124;-55
2023/10/02 07:49:47;;;;;;;10.65;6.43;;;20.00;77.30;;;;;;10490705;28;20569;-57
2023/10/02 07:54:49;;;;;;;10.70;6.13;;;20.00;77.60;;;;;;10489514;28;20104;-56
2023/10/02 07:59:52;;;;;;;11.95;6.18;;;20.00;77.30;;;;;;10487033;28;20340;-54
2023/10/02 08:04:52;;;;;;;12.25;6.10;;;20.00;77.60;;;;;;10489998;28;20655;-56
2023/10/02 08:09:55;;;;;;;10.70;5.78;;;20.00;77.30;;;;;;10489832;28;20032;-57
2023/10/02 08:15:01;;;;;;;10.73;5.28;;;20.00;77.60;;;;;;10488558;28;20094;-59
2023/10/02 08:20:19;;;;;;;11.68;6.07;;;20.10;77.40;;;;;;10489956;28;20309;-56
2023/10/02 08:25:23;;;;;;;9.77;6.35;;;20.00;77.30;;;;;;10488464;28;20377;-57
2023/10/02 08:30:32;;;;;;;9.20;5.90;;;20.00;77.20;;;;;;10489234;28;20082;-58
2023/10/02 08:35:34;;;;;;;10.00;6.90;;;20.00;77.10;;;;;;10472212;28;20525;-57
2023/10/02 08:40:39;;;;;;;13.48;7.15;;;20.00;77.00;;;;;;10469576;28;20060;-56
2023/10/02 08:45:44;;;;;;;12.07;6.95;;;20.00;77.30;;;;;;10488342;28;20041;-57
2023/10/02 08:50:48;;;;;;;12.35;6.15;;;20.00;77.20;;;;;;10488209;28;20033;-55
2023/10/02 08:56:04;;;;;;;16.52;7.30;;;20.00;77.30;;;;;;10488573;28;20044;-56
2023/10/02 09:11:36;;;;;;;13.88;7.18;;;20.10;78.30;;;;;;10494252;28;20419;-55
2023/10/02 09:16:37;;;;;;;11.77;6.75;;;20.20;78.80;;;;;;10496003;28;20049;-56
2023/10/02 09:21:46;;;;;;;17.27;7.68;;;20.20;78.50;;;;;;10495931;28;20028;-56
2023/10/02 09:26:48;;;;;;;16.83;7.40;;;20.20;78.00;;;;;;10478672;28;20447;-58
2023/10/02 09:31:49;;;;;;;13.88;8.80;;;20.20;78.50;;;;;;10495947;28;20032;-55
2023/10/02 09:36:52;;;;;;;17.67;7.07;;;20.20;78.60;;;;;;10494162;28;20471;-56
2023/10/02 09:42:05;;;;;;;13.55;6.63;;;20.20;78.70;;;;;;10484888;28;20028;-56
2023/10/02 09:47:09;;;;;;;12.80;6.75;;;20.20;78.70;;;;;;10493626;28;20604;-57
2023/10/02 09:52:15;;;;;;;15.13;6.53;;;20.20;78.80;;;;;;10470872;28;20039;-58
2023/10/02 09:57:25;;;;;;;12.80;6.97;;;20.20;78.90;;;;;;10474210;28;20115;-57
2023/10/02 10:07:52;;;;;;;18.42;6.97;;;20.20;77.80;;;;;;10494045;28;20036;-58
2023/10/02 10:12:58;;;;;;;18.02;7.57;;;20.20;77.70;;;;;;10493063;28;20036;-58
2023/10/02 10:17:59;;;;;;;15.63;6.85;;;20.20;79.10;;;;;;10482660;28;20044;-56
2023/10/02 10:23:31;;;;;;;13.77;6.00;;;20.40;79.00;;;;;;10458384;28;20024;-56
2023/10/02 10:28:33;;;;;;;15.38;6.30;;;20.40;78.90;;;;;;10472203;28;20484;-57
2023/10/02 10:33:35;;;;;;;13.82;7.25;;;20.40;78.70;;;;;;10490775;28;20086;-57
2023/10/02 10:38:41;;;;;;;15.00;7.57;;;20.40;78.90;;;;;;10493326;28;20056;-58
2023/10/02 10:49:15;;;;;;;14.20;6.03;;;20.50;78.00;;;;;;10476159;28;20052;-58
2023/10/02 10:54:22;;;;;;;12.73;6.10;;;20.40;77.80;;;;;;10491677;28;20040;-59
2023/10/02 10:59:32;;;;;;;12.65;7.57;;;20.40;78.00;;;;;;10492143;28;20056;-58
2023/10/02 11:04:34;;;;;;;16.05;7.18;;;20.50;78.00;;;;;;10491401;28;20024;-58
2023/10/02 11:09:41;;;;;;;13.30;6.47;;;20.50;77.90;;;;;;10490329;28;20082;-60
2023/10/02 11:14:44;;;;;;;12.70;6.70;;;20.50;77.80;;;;;;10490375;28;20051;-60
2023/10/02 11:19:55;;;;;;;12.30;5.90;;;20.40;77.80;;;;;;10459444;28;20020;-60
2023/10/02 11:24:55;;;;;;;11.63;6.78;;;20.40;77.90;;;;;;10490286;28;20058;-60
2023/10/02 11:30:02;;;;;;;12.30;7.40;;;20.40;77.90;;;;;;10473291;28;20078;-61
2023/10/02 11:35:05;;;;;;;11.85;6.63;;;20.40;77.90;;;;;;10490897;28;20075;-61
2023/10/02 11:40:06;;;;;;;17.13;6.97;;;20.40;77.90;;;;;;10489758;28;20073;-60
2023/10/02 11:45:09;;;;;;;20.35;8.38;;;20.40;77.90;;;;;;10490852;28;20033;-60
2023/10/02 11:50:12;;;;;;;12.70;6.93;;;20.30;77.90;;;;;;10473057;28;20032;-59
2023/10/02 11:55:17;;;;;;;16.42;7.32;;;20.30;77.90;;;;;;10489396;28;20062;-58
2023/10/02 12:00:23;;;;;;;13.27;7.97;;;20.30;77.90;;;;;;10490469;28;20016;-59
2023/10/02 12:05:26;;;;;;;13.38;6.88;;;20.30;77.90;;;;;;10490251;28;20055;-59
2023/10/02 12:10:28;;;;;;;9.63;6.32;;;20.30;77.90;;;;;;10489654;28;20036;-60
2023/10/02 12:15:28;;;;;;;28.90;9.88;;;20.40;77.90;;;;;;10488814;28;20438;-59
2023/10/02 12:20:29;;;;;;;28.75;10.50;;;20.40;78.40;;;;;;10489698;28;20089;-58
2023/10/02 12:25:31;;;;;;;33.65;9.23;;;20.40;78.80;;;;;;10488496;28;20036;-63
2023/10/02 12:30:35;;;;;;;30.77;10.38;;;20.50;78.80;;;;;;10488206;28;20035;-60
2023/10/02 12:35:39;;;;;;;23.77;9.23;;;20.50;78.80;;;;;;10496599;28;20082;-59
2023/10/02 12:40:40;;;;;;;22.10;9.07;;;20.70;79.60;;;;;;10497826;28;20020;-58
2023/10/02 12:45:41;;;;;;;37.28;10.35;;;20.80;79.10;;;;;;10496718;28;20047;-59
2023/10/02 12:50:42;;;;;;;27.70;8.80;;;20.70;78.30;;;;;;10497128;28;20034;-59
2023/10/02 12:55:47;;;;;;;27.60;8.18;;;20.70;79.70;;;;;;10496461;28;20454;-56
2023/10/02 13:00:48;;;;;;;34.10;9.15;;;20.80;78.60;;;;;;10497108;28;20078;-59
2023/10/02 13:05:48;;;;;;;43.33;10.80;;;20.80;79.00;;;;;;10464782;28;20301;-57
2023/10/02 13:10:49;;;;;;;45.38;11.30;;;20.80;79.20;;;;;;10496781;28;20752;-58
2023/10/02 13:15:51;;;;;;;29.38;9.75;;;20.80;79.30;;;;;;10495472;28;20049;-55
2023/10/02 13:20:55;;;;;;;28.00;9.75;;;20.80;79.00;;;;;;10478693;28;20017;-56
2023/10/02 13:25:55;;;;;;;32.50;10.70;;;20.80;79.20;;;;;;10496900;28;20079;-59
2023/10/02 13:30:56;;;;;;;25.17;9.85;;;20.70;79.20;;;;;;10494586;28;20024;-59
2023/10/02 13:36:03;;;;;;;26.77;10.10;;;20.70;79.40;;;;;;10477683;28;20082;-58
2023/10/02 13:41:09;;;;;;;31.42;10.55;;;20.70;79.40;;;;;;10477778;28;20032;-60
2023/10/02 13:46:13;;;;;;;27.25;9.90;;;20.70;79.60;;;;;;10490983;28;20371;-58
2023/10/02 13:51:16;;;;;;;22.63;9.48;;;20.70;79.40;;;;;;10477639;28;20502;-57
2023/10/02 13:56:20;;;;;;;20.88;9.88;;;20.70;79.40;;;;;;10459338;28;20125;-58
2023/10/02 14:01:25;;;;;;;21.10;9.70;;;20.70;79.40;;;;;;10494940;28;20029;-56
2023/10/02 14:06:28;;;;;;;18.20;9.07;;;20.70;79.30;;;;;;10492705;28;20115;-59
2023/10/02 14:11:29;;;;;;;21.90;11.02;;;20.70;79.30;;;;;;10494588;28;20040;-58
2023/10/02 14:16:31;;;;;;;19.80;9.88;;;20.70;79.60;;;;;;10475313;28;20037;-55
2023/10/02 14:21:32;;;;;;;19.23;9.63;;;20.90;79.40;;;;;;10493216;28;20051;-58
2023/10/02 14:26:33;;;;;;;39.20;11.40;;;21.20;78.90;;;;;;10493874;28;20048;-61
2023/10/02 14:31:34;;;;;;;22.33;9.50;;;21.10;80.40;;;;;;10493574;28;20648;-60
2023/10/02 14:36:35;;;;;;;24.92;11.98;;;21.20;80.40;;;;;;10475672;28;20032;-60
2023/10/02 14:41:37;;;;;;;53.35;13.60;;;21.10;79.50;;;;;;10484990;28;20032;-58
2023/10/02 14:46:39;;;;;;;52.65;12.63;;;20.90;79.40;;;;;;10448687;28;20036;-58
2023/10/02 14:51:40;;;;;;;28.02;12.00;;;20.90;79.40;;;;;;10458327;28;20441;-58
2023/10/02 14:56:41;;;;;;;26.80;12.40;;;20.90;79.30;;;;;;10472317;28;20037;-57
2023/10/02 15:01:41;;;;;;;25.58;13.95;;;21.00;79.70;;;;;;10491254;28;20060;-57
2023/10/02 15:06:43;;;;;;;25.05;14.48;;;21.10;80.30;;;;;;10481568;28;20043;-59
2023/10/02 15:11:43;;;;;;;20.85;11.82;;;21.30;86.20;;;;;;10490562;28;20471;-57
2023/10/02 15:16:44;;;;;;;24.70;14.25;;;21.50;84.20;;;;;;10472621;28;20053;-57
2023/10/02 15:21:45;;;;;;;19.17;11.63;;;21.50;82.40;;;;;;10490866;28;20031;-57
2023/10/02 15:26:46;;;;;;;24.50;11.75;;;21.50;81.90;;;;;;10490951;28;20497;-59
2023/10/02 15:31:47;;;;;;;21.42;11.38;;;21.50;81.50;;;;;;10491397;28;20024;-60
2023/10/02 15:36:47;;;;;;;23.95;11.63;;;21.50;80.70;;;;;;10473146;28;20029;-58
2023/10/02 15:41:48;;;;;;;23.05;12.77;;;21.50;80.70;;;;;;10490099;28;20035;-57
2023/10/02 15:46:50;;;;;;;30.15;12.68;;;21.50;80.50;;;;;;10489696;28;20047;-59
2023/10/02 15:51:51;;;;;;;30.83;13.43;;;21.50;80.70;;;;;;10471435;28;20086;-59
2023/10/02 15:56:52;;;;;;;38.60;14.43;;;21.50;80.60;;;;;;10491395;28;20131;-59
2023/10/02 16:01:53;;;;;;;34.75;12.82;;;21.30;80.70;;;;;;10489400;28;20029;-60
2023/10/02 16:06:54;;;;;;;30.65;12.60;;;21.30;81.00;;;;;;10449265;28;20032;-59
2023/10/02 16:11:55;;;;;;;34.08;12.32;;;21.30;81.00;;;;;;10489489;28;20044;-61
2023/10/02 16:16:56;;;;;;;34.13;12.27;;;21.40;80.80;;;;;;10471540;28;20049;-59
2023/10/02 16:21:58;;;;;;;22.67;11.15;;;21.40;80.60;;;;;;10489245;28;20045;-59
2023/10/02 16:26:59;;;;;;;24.23;10.25;;;21.30;80.50;;;;;;10489915;28;20048;-59
2023/10/02 16:32:04;;;;;;;20.95;10.57;;;21.30;80.60;;;;;;10471152;28;20129;-59
2023/10/02 16:37:05;;;;;;;23.90;10.38;;;21.20;80.80;;;;;;10489491;28;20021;-58
2023/10/02 16:42:06;;;;;;;27.05;12.32;;;21.20;80.90;;;;;;10471753;28;20021;-59
2023/10/02 16:47:07;;;;;;;28.67;12.77;;;21.10;80.90;;;;;;10472201;28;20032;-58
2023/10/02 16:52:08;;;;;;;20.95;11.32;;;21.00;81.30;;;;;;10471946;28;20614;-58
2023/10/02 16:57:08;;;;;;;24.05;11.73;;;21.00;81.30;;;;;;10490729;28;20047;-58
2023/10/02 17:02:09;;;;;;;25.92;11.82;;;21.00;81.50;;;;;;10489982;28;20036;-59
2023/10/02 17:07:10;;;;;;;23.10;11.30;;;20.90;81.40;;;;;;10490330;28;20086;-57
2023/10/02 17:12:11;;;;;;;23.30;11.00;;;20.90;81.50;;;;;;10489603;28;20033;-58
2023/10/02 17:17:11;;;;;;;27.27;10.95;;;20.90;81.50;;;;;;10489778;28;20052;-58
2023/10/02 17:22:14;;;;;;;21.02;11.88;;;20.90;81.50;;;;;;10496656;28;20033;-60
2023/10/02 17:27:15;;;;;;;29.65;12.18;;;20.90;81.50;;;;;;10497121;28;20479;-58
2023/10/02 17:32:18;;;;;;;24.83;11.45;;;20.90;81.50;;;;;;10496911;28;20039;-58
2023/10/02 17:37:19;;;;;;;24.45;10.93;;;20.90;81.60;;;;;;10497246;28;20032;-56
2023/10/02 17:42:20;;;;;;;25.58;11.98;;;20.90;81.80;;;;;;10478301;28;20028;-58
2023/10/02 17:47:21;;;;;;;23.40;9.90;;;20.90;81.70;;;;;;10496555;28;20499;-58
2023/10/02 17:52:22;;;;;;;23.50;10.70;;;20.80;81.50;;;;;;10496198;28;20711;-57
2023/10/02 17:57:23;;;;;;;17.77;9.93;;;20.80;81.30;;;;;;10495378;28;20028;-58
2023/10/02 18:02:25;;;;;;;19.48;10.32;;;20.80;81.40;;;;;;10493458;28;20107;-59
2023/10/02 18:07:28;;;;;;;20.15;9.48;;;20.80;81.40;;;;;;10470156;28;20078;-58
2023/10/02 18:12:29;;;;;;;22.45;9.65;;;20.80;81.20;;;;;;10481576;28;20052;-56
2023/10/02 18:17:29;;;;;;;18.88;9.32;;;20.80;81.30;;;;;;10468366;28;20051;-58
2023/10/02 18:22:31;;;;;;;18.30;9.68;;;20.80;81.30;;;;;;10470643;28;20053;-58
2023/10/02 18:27:32;;;;;;;16.60;8.75;;;20.80;81.20;;;;;;10466555;28;20024;-59
2023/10/02 18:32:33;;;;;;;14.80;8.63;;;20.80;81.10;;;;;;10475687;28;20041;-58
2023/10/02 18:37:34;;;;;;;18.85;9.43;;;20.70;81.00;;;;;;10491865;28;20029;-58
2023/10/02 18:42:35;;;;;;;16.40;8.10;;;20.70;81.00;;;;;;10456543;28;20116;-60
2023/10/02 18:47:36;;;;;;;18.35;9.35;;;20.70;81.20;;;;;;10481405;28;20024;-60
2023/10/02 18:52:39;;;;;;;15.48;8.50;;;20.80;81.20;;;;;;10490634;28;20032;-60
2023/10/02 18:57:40;;;;;;;13.63;7.93;;;20.80;81.50;;;;;;10491248;28;20025;-58
2023/10/02 19:02:41;;;;;;;15.60;9.25;;;20.80;80.80;;;;;;10492225;28;20020;-59
2023/10/02 19:07:42;;;;;;;14.57;8.75;;;20.80;80.80;;;;;;10491092;28;20495;-58
2023/10/02 19:12:42;;;;;;;17.67;8.80;;;20.70;81.00;;;;;;10490552;28;20111;-59
2023/10/02 19:17:43;;;;;;;12.30;8.75;;;20.70;81.10;;;;;;10491663;28;20522;-58
2023/10/02 19:22:44;;;;;;;15.95;8.02;;;20.70;81.20;;;;;;10492114;28;20024;-58
2023/10/02 19:27:45;;;;;;;12.55;7.95;;;20.70;81.30;;;;;;10492870;28;20021;-58
2023/10/02 19:32:46;;;;;;;18.42;7.72;;;20.60;81.20;;;;;;10491825;28;20128;-59
2023/10/02 19:37:47;;;;;;;11.30;7.88;;;20.60;81.20;;;;;;10474481;28;20040;-59
2023/10/02 19:42:48;;;;;;;12.73;8.20;;;20.60;81.60;;;;;;10491242;28;20118;-59
2023/10/02 19:47:49;;;;;;;10.95;7.57;;;20.60;80.90;;;;;;10486439;28;20032;-59
2023/10/02 19:52:50;;;;;;;12.40;6.88;;;20.60;80.80;;;;;;10491326;28;20090;-58
2023/10/02 19:57:54;;;;;;;11.35;7.82;;;20.60;80.70;;;;;;10491637;28;20046;-60
2023/10/02 20:02:56;;;;;;;12.45;7.60;;;20.60;80.70;;;;;;10491372;28;20016;-59
2023/10/02 20:07:58;;;;;;;13.30;7.80;;;20.60;80.70;;;;;;10491545;28;20039;-59
2023/10/02 20:12:59;;;;;;;11.95;7.30;;;20.60;80.70;;;;;;10472981;28;20430;-59
2023/10/02 20:18:01;;;;;;;12.82;7.80;;;20.50;80.60;;;;;;10490945;28;20825;-59
2023/10/02 20:23:02;;;;;;;11.63;7.72;;;20.60;80.60;;;;;;10490645;28;20029;-58
2023/10/02 20:28:03;;;;;;;12.25;7.93;;;20.60;80.70;;;;;;10490916;28;20031;-59
2023/10/02 20:33:08;;;;;;;11.40;8.73;;;20.50;80.50;;;;;;10490646;28;20587;-59
2023/10/02 20:38:10;;;;;;;12.10;7.13;;;20.50;80.50;;;;;;10490677;28;20056;-59
2023/10/02 20:43:12;;;;;;;12.25;6.80;;;20.50;80.50;;;;;;10490156;28;20017;-59
2023/10/02 20:48:12;;;;;;;13.05;7.63;;;20.50;80.40;;;;;;10490746;28;20049;-58
2023/10/02 20:53:13;;;;;;;10.98;6.60;;;20.50;80.40;;;;;;10492898;28;20484;-59
2023/10/02 20:58:14;;;;;;;9.68;7.32;;;20.50;80.30;;;;;;10473458;28;20032;-59
2023/10/02 21:03:15;;;;;;;9.77;6.45;;;20.50;80.30;;;;;;10468033;28;20494;-59
2023/10/02 21:08:16;;;;;;;9.57;6.30;;;20.50;80.30;;;;;;10498343;28;20077;-59
2023/10/02 21:13:16;;;;;;;11.52;6.22;;;20.50;80.30;;;;;;10497637;28;20028;-59
2023/10/02 21:18:21;;;;;;;6.45;5.05;;;20.50;80.30;;;;;;10497781;28;20383;-59
2023/10/02 21:23:22;;;;;;;11.35;7.20;;;20.50;80.20;;;;;;10497320;28;20024;-58
2023/10/02 21:28:22;;;;;;;11.15;7.90;;;20.50;80.20;;;;;;10497295;28;20036;-57
2023/10/02 21:33:24;;;;;;;11.10;7.53;;;20.50;80.20;;;;;;10496858;28;20028;-59
2023/10/02 21:38:25;;;;;;;11.32;7.28;;;20.50;80.20;;;;;;10495537;28;20047;-59
2023/10/02 21:43:26;;;;;;;14.25;9.18;;;20.50;80.20;;;;;;10478992;28;20070;-58
2023/10/02 21:48:27;;;;;;;11.00;7.25;;;20.50;80.20;;;;;;10496805;28;20046;-59
2023/10/02 21:53:28;;;;;;;9.55;6.78;;;20.50;80.10;;;;;;10477994;28;20033;-58
2023/10/02 21:58:29;;;;;;;13.35;8.07;;;20.50;80.10;;;;;;10478406;28;20032;-57
2023/10/02 22:03:31;;;;;;;12.55;8.32;;;20.50;80.00;;;;;;10495078;28;20028;-58
2023/10/02 22:08:33;;;;;;;9.27;6.60;;;20.40;80.00;;;;;;10495882;28;20032;-59
2023/10/02 22:13:35;;;;;;;12.23;7.63;;;20.40;79.90;;;;;;10477402;28;20016;-58
2023/10/02 22:18:36;;;;;;;9.68;6.43;;;20.40;79.90;;;;;;10495813;28;20036;-59
2023/10/02 22:23:40;;;;;;;8.98;6.43;;;20.40;79.90;;;;;;10495017;28;20105;-59
2023/10/02 22:28:44;;;;;;;11.60;7.57;;;20.40;79.90;;;;;;10495358;28;20149;-59
2023/10/02 22:33:46;;;;;;;10.50;7.45;;;20.40;79.80;;;;;;10494705;28;20028;-59
2023/10/02 22:38:47;;;;;;;10.95;7.25;;;20.40;79.80;;;;;;10494751;28;20075;-59
2023/10/02 22:43:51;;;;;;;11.30;7.78;;;20.40;79.80;;;;;;10494146;28;20024;-59
2023/10/02 22:48:52;;;;;;;10.95;7.38;;;20.40;79.80;;;;;;10494516;28;20035;-59
2023/10/02 22:53:53;;;;;;;10.15;6.93;;;20.40;79.80;;;;;;10493955;28;20573;-59
2023/10/02 22:58:54;;;;;;;8.35;5.88;;;20.40;79.70;;;;;;10494022;28;20044;-59
2023/10/02 23:03:55;;;;;;;8.45;6.45;;;20.40;79.70;;;;;;10493592;28;20812;-59
2023/10/02 23:08:57;;;;;;;13.13;7.75;;;20.50;79.70;;;;;;10479215;28;20043;-59
2023/10/02 23:13:57;;;;;;;10.75;7.13;;;20.40;79.70;;;;;;10491583;28;20045;-59
2023/10/02 23:19:00;;;;;;;8.70;6.80;;;20.40;79.60;;;;;;10492226;28;20651;-59
2023/10/02 23:24:00;;;;;;;9.65;7.78;;;20.40;79.60;;;;;;10492453;28;20640;-58
2023/10/02 23:29:01;;;;;;;10.13;6.40;;;20.40;79.60;;;;;;10492478;28;20029;-59
2023/10/02 23:34:03;;;;;;;9.98;7.97;;;20.40;79.60;;;;;;10474171;28;20055;-59
2023/10/02 23:39:08;;;;;;;9.98;7.65;;;20.40;79.60;;;;;;10492329;28;20029;-58
2023/10/02 23:44:12;;;;;;;10.07;6.68;;;20.40;79.60;;;;;;10474412;28;20167;-58
2023/10/02 23:49:13;;;;;;;10.60;7.38;;;20.40;79.60;;;;;;10473968;28;20498;-58
2023/10/02 23:54:18;;;;;;;11.65;7.10;;;20.40;79.60;;;;;;10491716;28;20044;-59
2023/10/02 23:59:18;;;;;;;12.35;7.70;;;20.40;79.50;;;;;;10491671;28;20025;-59
